Time;durP1;ratioP1;P1;durP2;ratioP2;P2;SDS_P1;SDS_P2;PMS_P1;PMS_P2;Temp;Humidity;BMP_temperature;BMP_pressure;BME280_temperature;BME280_humidity;BME280_pressure;Samples;Min_cycle;Max_cycle;Signal;HPM_P1;HPM_P2
2023/06/02 00:02:19;;;;;;;;;;;;;;;17.33;100.00;99295.09;4988611;28;19936;-42
2023/06/02 00:04:45;;;;;;;;;;;;;;;17.80;100.00;99267.28;4987044;28;20363;-42
2023/06/02 00:07:11;;;;;;;;;;;;;;;16.18;100.00;99311.50;4992941;28;19924;-42
2023/06/02 00:09:40;;;;;;;;;;;;;;;17.76;100.00;99260.56;4993645;28;19917;-42
2023/06/02 00:12:06;;;;;;;;;;;;;;;18.46;100.00;99233.91;4982568;28;19921;-42
2023/06/02 00:14:32;;;;;;;;;;;;;;;17.21;100.00;99274.09;4989508;28;19924;-42
2023/06/02 00:17:00;;;;;;;;;;;;;;;17.41;100.00;99265.19;4991803;28;19925;-42
2023/06/02 00:19:26;;;;;;;;;;;;;;;16.57;100.00;99291.34;4989979;28;20064;-42
2023/06/02 00:21:53;;;;;;;;;;;;;;;17.76;100.00;99247.53;4982434;28;20642;-42
2023/06/02 00:24:19;;;;;;;;;;;;;;;16.09;100.00;99294.59;4991820;28;19922;-42
2023/06/02 00:26:44;;;;;;;;;;;;;;;15.53;100.00;99302.53;4991965;28;20349;-42
2023/06/02 00:29:09;;;;;;;;;;;;;;;17.53;100.00;99244.47;4992395;28;19924;-42
2023/06/02 00:31:35;;;;;;;;;;;;;;;16.86;100.00;99269.88;4985135;28;20012;-42
2023/06/02 00:34:00;;;;;;;;;;;;;;;16.11;100.00;99281.53;4998790;28;19956;-41
2023/06/02 00:36:25;;;;;;;;;;;;;;;16.02;100.00;99307.97;4988927;28;19971;-42
2023/06/02 00:38:50;;;;;;;;;;;;;;;16.55;100.00;99286.22;4998255;28;19921;-42
2023/06/02 00:41:16;;;;;;;;;;;;;;;15.67;100.00;99305.31;4997719;28;20513;-42
2023/06/02 00:43:41;;;;;;;;;;;;;;;16.03;100.00;99314.84;4986905;28;19921;-42
2023/06/02 00:46:06;;;;;;;;;;;;;;;15.69;100.00;99311.25;4993157;28;19923;-42
2023/06/02 00:48:31;;;;;;;;;;;;;;;15.65;100.00;99317.53;4994996;28;19925;-42
2023/06/02 00:50:56;;;;;;;;;;;;;;;17.11;100.00;99273.75;4982250;28;19926;-42
2023/06/02 00:53:22;;;;;;;;;;;;;;;16.71;100.00;99283.66;4997767;28;19924;-42
2023/06/02 00:55:47;;;;;;;;;;;;;;;17.53;100.00;99259.28;4984377;28;19921;-42
2023/06/02 00:58:16;;;;;;;;;;;;;;;17.16;100.00;99255.28;4987116;28;20004;-42
2023/06/02 01:00:42;;;;;;;;;;;;;;;16.54;100.00;99302.75;4990658;28;21310;-42
2023/06/02 01:03:07;;;;;;;;;;;;;;;17.37;100.00;99267.09;4992699;28;20000;-42
2023/06/02 01:05:33;;;;;;;;;;;;;;;17.81;100.00;99247.28;4984825;28;19961;-42
2023/06/02 01:07:59;;;;;;;;;;;;;;;17.22;100.00;99270.53;4995885;28;19917;-42
2023/06/02 01:10:24;;;;;;;;;;;;;;;17.81;100.00;99245.53;4984737;28;19968;-42
2023/06/02 01:12:50;;;;;;;;;;;;;;;16.00;100.00;99296.81;4988695;28;19925;-42
2023/06/02 01:15:15;;;;;;;;;;;;;;;15.35;100.00;99325.84;4987818;28;19918;-42
2023/06/02 01:17:45;;;;;;;;;;;;;;;15.99;100.00;99292.56;4989118;28;19921;-42
2023/06/02 01:20:11;;;;;;;;;;;;;;;16.71;100.00;99271.47;4996415;28;19921;-42
2023/06/02 01:22:49;;;;;;;;;;;;;;;16.37;100.00;99271.56;4985582;28;19917;-42
2023/06/02 01:25:25;;;;;;;;;;;;;;;17.11;100.00;99248.56;4994976;28;20297;-42
2023/06/02 01:27:51;;;;;;;;;;;;;;;17.36;100.00;99244.63;4995268;28;19921;-42
2023/06/02 01:30:17;;;;;;;;;;;;;;;17.59;100.00;99232.91;4988671;28;19933;-42
2023/06/02 01:32:45;;;;;;;;;;;;;;;16.92;100.00;99264.34;4986925;28;20665;-42
2023/06/02 01:35:10;;;;;;;;;;;;;;;16.38;100.00;99283.66;4982505;28;20045;-42
2023/06/02 01:37:36;;;;;;;;;;;;;;;16.35;100.00;99278.59;4972534;28;20502;-42
2023/06/02 01:40:03;;;;;;;;;;;;;;;16.63;100.00;99267.63;4964499;28;21349;-42
2023/06/02 01:42:28;;;;;;;;;;;;;;;16.85;100.00;99257.78;4997910;28;19971;-42
2023/06/02 01:44:54;;;;;;;;;;;;;;;16.05;100.00;99276.66;4982965;28;19940;-42
2023/06/02 01:47:19;;;;;;;;;;;;;;;15.64;100.00;99289.88;4999930;28;19991;-42
2023/06/02 01:49:44;;;;;;;;;;;;;;;16.41;100.00;99265.31;4983681;28;19922;-42
2023/06/02 01:52:09;;;;;;;;;;;;;;;15.54;100.00;99301.63;4987321;28;19922;-42
2023/06/02 01:54:36;;;;;;;;;;;;;;;15.69;100.00;99290.47;4995570;28;19941;-42
2023/06/02 01:57:01;;;;;;;;;;;;;;;15.58;100.00;99292.78;4989939;28;19922;-42
2023/06/02 01:59:27;;;;;;;;;;;;;;;15.98;100.00;99275.28;4987733;28;19922;-42
2023/06/02 02:01:52;;;;;;;;;;;;;;;15.98;100.00;99272.69;4986058;28;20294;-42
2023/06/02 02:04:18;;;;;;;;;;;;;;;16.61;100.00;99246.91;4986444;28;19972;-42
2023/06/02 02:06:49;;;;;;;;;;;;;;;16.70;100.00;99237.78;4996606;28;20358;-42
2023/06/02 02:09:14;;;;;;;;;;;;;;;15.87;100.00;99262.81;4994476;28;19922;-42
2023/06/02 02:11:40;;;;;;;;;;;;;;;15.91;100.00;99268.72;4989131;28;19948;-42
2023/06/02 02:14:05;;;;;;;;;;;;;;;17.07;100.00;99247.06;4993621;28;19944;-42
2023/06/02 02:16:30;;;;;;;;;;;;;;;17.06;100.00;99208.97;4982910;28;19918;-42
2023/06/02 02:18:56;;;;;;;;;;;;;;;16.97;100.00;99251.09;4984812;28;19999;-42
2023/06/02 02:21:21;;;;;;;;;;;;;;;15.30;100.00;99283.69;4998204;28;19926;-42
2023/06/02 02:23:47;;;;;;;;;;;;;;;14.81;100.00;99301.50;4986722;28;19928;-42
2023/06/02 02:26:12;;;;;;;;;;;;;;;16.10;100.00;99257.31;4991359;28;19913;-42
2023/06/02 02:28:37;;;;;;;;;;;;;;;16.92;100.00;99253.09;4991131;28;19968;-42
2023/06/02 02:31:04;;;;;;;;;;;;;;;17.21;100.00;99224.63;4987327;28;20657;-42
2023/06/02 02:33:29;;;;;;;;;;;;;;;14.79;100.00;99300.72;4988304;28;20012;-42
2023/06/02 02:35:54;;;;;;;;;;;;;;;14.45;100.00;99312.53;4992342;28;20450;-42
2023/06/02 02:38:20;;;;;;;;;;;;;;;15.32;100.00;99287.03;4985479;28;20952;-42
2023/06/02 02:40:45;;;;;;;;;;;;;;;14.38;100.00;99308.53;4995927;28;19928;-42
2023/06/02 02:43:10;;;;;;;;;;;;;;;15.72;100.00;99258.41;4983933;28;20020;-42
2023/06/02 02:45:36;;;;;;;;;;;;;;;16.20;100.00;99257.69;4981551;28;20048;-42
2023/06/02 02:48:01;;;;;;;;;;;;;;;14.94;100.00;99281.03;4990743;28;19925;-42
2023/06/02 02:50:26;;;;;;;;;;;;;;;14.96;100.00;99280.06;4985156;28;20286;-42
2023/06/02 02:52:52;;;;;;;;;;;;;;;14.98;100.00;99283.41;4990038;28;19997;-42
2023/06/02 02:55:17;;;;;;;;;;;;;;;17.10;100.00;99236.47;4991618;28;19959;-42
2023/06/02 02:57:42;;;;;;;;;;;;;;;15.94;100.00;99239.97;4986510;28;19926;-42
2023/06/02 03:00:09;;;;;;;;;;;;;;;15.27;100.00;99279.47;4999964;28;19961;-42
2023/06/02 03:02:34;;;;;;;;;;;;;;;14.76;100.00;99303.47;4992619;28;19932;-42
2023/06/02 03:05:02;;;;;;;;;;;;;;;15.09;100.00;99290.72;4985746;28;19921;-42
2023/06/02 03:07:28;;;;;;;;;;;;;;;15.89;100.00;99246.22;4997574;28;19917;-42
2023/06/02 03:09:53;;;;;;;;;;;;;;;15.25;100.00;99275.28;4994370;28;20489;-42
2023/06/02 03:12:18;;;;;;;;;;;;;;;15.66;100.00;99285.44;4994769;28;19921;-42
2023/06/02 03:14:43;;;;;;;;;;;;;;;15.26;100.00;99276.97;4984838;28;19917;-42
2023/06/02 03:17:08;;;;;;;;;;;;;;;16.85;100.00;99246.53;4982461;28;19922;-42
2023/06/02 03:19:34;;;;;;;;;;;;;;;16.62;100.00;99235.56;4998995;28;19943;-42
2023/06/02 03:22:00;;;;;;;;;;;;;;;16.25;99.29;99227.09;4986056;28;20956;-42
2023/06/02 03:24:25;;;;;;;;;;;;;;;17.88;99.93;99218.22;4998293;28;19944;-42
2023/06/02 03:26:51;;;;;;;;;;;;;;;17.32;97.20;99206.66;4995810;28;19914;-42
2023/06/02 03:29:17;;;;;;;;;;;;;;;18.36;95.12;99197.16;4989368;28;19925;-42
2023/06/02 03:31:42;;;;;;;;;;;;;;;16.78;96.19;99234.75;4998284;28;19918;-42
2023/06/02 03:34:07;;;;;;;;;;;;;;;17.09;99.38;99250.41;4992572;28;20734;-42
2023/06/02 03:36:36;;;;;;;;;;;;;;;18.29;99.56;99230.56;4985727;28;19957;-42
2023/06/02 03:39:09;;;;;;;;;;;;;;;18.97;93.04;99192.50;4998507;28;19953;-42
2023/06/02 03:41:35;;;;;;;;;;;;;;;19.25;90.70;99180.28;4990432;28;19944;-42
2023/06/02 03:44:01;;;;;;;;;;;;;;;18.46;91.43;99194.81;4993825;28;20340;-42
2023/06/02 03:46:26;;;;;;;;;;;;;;;19.01;90.93;99189.59;4991804;28;19917;-42
2023/06/02 03:48:51;;;;;;;;;;;;;;;17.54;95.03;99240.97;4989437;28;19922;-42
2023/06/02 03:51:16;;;;;;;;;;;;;;;17.69;93.45;99221.00;4993033;28;19922;-42
2023/06/02 03:53:42;;;;;;;;;;;;;;;17.95;94.91;99229.97;4998356;28;19924;-42
2023/06/02 03:56:07;;;;;;;;;;;;;;;17.49;97.86;99256.03;4985572;28;19922;-42
2023/06/02 03:58:32;;;;;;;;;;;;;;;17.77;97.48;99247.47;4993825;28;19921;-42
2023/06/02 04:00:58;;;;;;;;;;;;;;;18.48;92.61;99203.38;4986741;28;19930;-42
2023/06/02 04:03:23;;;;;;;;;;;;;;;17.27;98.79;99266.78;4994691;28;19925;-42
2023/06/02 04:05:48;;;;;;;;;;;;;;;18.92;94.09;99205.00;4991585;28;20016;-42
2023/06/02 04:08:14;;;;;;;;;;;;;;;18.87;92.03;99207.91;4994437;28;19972;-42
2023/06/02 04:10:39;;;;;;;;;;;;;;;17.64;94.11;99237.84;4995327;28;19921;-42
2023/06/02 04:13:05;;;;;;;;;;;;;;;17.86;96.55;99251.34;4986513;28;19976;-42
2023/06/02 04:15:30;;;;;;;;;;;;;;;16.25;99.28;99284.28;4986960;28;19917;-42
2023/06/02 04:17:55;;;;;;;;;;;;;;;15.40;100.00;99313.50;4986275;28;20428;-42
2023/06/02 04:20:20;;;;;;;;;;;;;;;16.44;100.00;99297.16;4982369;28;20386;-42
2023/06/02 04:22:45;;;;;;;;;;;;;;;15.56;100.00;99298.03;4985538;28;19922;-42
2023/06/02 04:25:11;;;;;;;;;;;;;;;14.93;100.00;99336.41;4990842;28;19972;-42
2023/06/02 04:27:36;;;;;;;;;;;;;;;15.28;100.00;99316.66;4992000;28;19917;-42
2023/06/02 04:30:02;;;;;;;;;;;;;;;15.12;100.00;99331.22;4992909;28;20008;-42
2023/06/02 04:32:27;;;;;;;;;;;;;;;15.73;100.00;99323.22;4986406;28;19918;-42
2023/06/02 04:34:52;;;;;;;;;;;;;;;15.59;100.00;99302.25;4982941;28;19992;-42
2023/06/02 04:37:18;;;;;;;;;;;;;;;15.72;100.00;99295.59;4998983;28;20036;-42
2023/06/02 04:39:47;;;;;;;;;;;;;;;16.03;100.00;99296.66;4988924;28;20020;-41
2023/06/02 04:42:12;;;;;;;;;;;;;;;16.36;100.00;99288.09;4988265;28;19921;-42
2023/06/02 04:44:39;;;;;;;;;;;;;;;15.92;100.00;99288.56;4988731;28;19924;-42
2023/06/02 04:47:04;;;;;;;;;;;;;;;17.77;100.00;99257.88;4984918;28;19975;-42
2023/06/02 04:49:30;;;;;;;;;;;;;;;17.76;96.39;99229.31;4995527;28;19944;-42
2023/06/02 04:51:55;;;;;;;;;;;;;;;17.37;96.58;99243.69;4992630;28;20012;-42
2023/06/02 04:54:20;;;;;;;;;;;;;;;15.69;100.00;99316.44;4989138;28;20390;-42
2023/06/02 04:56:46;;;;;;;;;;;;;;;15.76;100.00;99323.09;4997242;28;19924;-42
2023/06/02 04:59:11;;;;;;;;;;;;;;;15.53;100.00;99349.25;4989188;28;19928;-42
2023/06/02 05:01:36;;;;;;;;;;;;;;;15.34;100.00;99360.47;4987621;28;20329;-42
2023/06/02 05:04:03;;;;;;;;;;;;;;;14.90;100.00;99373.69;4996416;28;19917;-42
2023/06/02 05:06:28;;;;;;;;;;;;;;;15.25;100.00;99363.50;4989835;28;20016;-42
2023/06/02 05:08:54;;;;;;;;;;;;;;;15.31;100.00;99365.81;4993575;28;20004;-42
2023/06/02 05:11:19;;;;;;;;;;;;;;;15.24;100.00;99356.63;4995835;28;20574;-42
2023/06/02 05:13:45;;;;;;;;;;;;;;;15.52;100.00;99347.56;4984262;28;19914;-42
2023/06/02 05:16:10;;;;;;;;;;;;;;;14.93;100.00;99350.22;4990594;28;19924;-42
2023/06/02 05:18:36;;;;;;;;;;;;;;;14.12;100.00;99371.78;4990075;28;20340;-42
2023/06/02 05:21:01;;;;;;;;;;;;;;;15.06;100.00;99359.13;4990567;28;19952;-42
2023/06/02 05:23:26;;;;;;;;;;;;;;;15.82;100.00;99340.13;4991674;28;19918;-42
2023/06/02 05:25:52;;;;;;;;;;;;;;;15.35;100.00;99348.34;4986679;28;19983;-42
2023/06/02 05:28:17;;;;;;;;;;;;;;;15.15;100.00;99378.66;4989091;28;20249;-42
2023/06/02 05:30:43;;;;;;;;;;;;;;;14.88;100.00;99362.53;4993354;28;19921;-42
2023/06/02 05:33:08;;;;;;;;;;;;;;;15.61;100.00;99336.75;4980822;28;20017;-42
2023/06/02 05:35:33;;;;;;;;;;;;;;;15.32;100.00;99362.31;4988222;28;19928;-42
2023/06/02 05:37:58;;;;;;;;;;;;;;;14.89;100.00;99360.78;4989586;28;19926;-42
2023/06/02 05:40:23;;;;;;;;;;;;;;;16.22;100.00;99326.03;4987090;28;20332;-42
2023/06/02 05:42:49;;;;;;;;;;;;;;;15.91;100.00;99320.66;4993528;28;20333;-42
2023/06/02 05:45:14;;;;;;;;;;;;;;;15.28;100.00;99340.03;4986239;28;20344;-42
2023/06/02 05:47:39;;;;;;;;;;;;;;;15.44;100.00;99335.81;4990672;28;19917;-42
2023/06/02 05:50:06;;;;;;;;;;;;;;;15.77;100.00;99313.53;4993005;28;20415;-42
2023/06/02 05:52:31;;;;;;;;;;;;;;;15.57;100.00;99327.44;4985612;28;20406;-42
2023/06/02 05:54:57;;;;;;;;;;;;;;;15.62;100.00;99326.31;4988279;28;19921;-41
2023/06/02 05:57:22;;;;;;;;;;;;;;;15.25;100.00;99360.91;4962924;28;20410;-42
2023/06/02 05:59:47;;;;;;;;;;;;;;;14.25;100.00;99392.84;4983351;28;19926;-42
2023/06/02 06:02:12;;;;;;;;;;;;;;;13.98;100.00;99395.63;4990595;28;19921;-42
2023/06/02 06:04:38;;;;;;;;;;;;;;;15.22;100.00;99367.06;4989044;28;19924;-42
2023/06/02 06:07:03;;;;;;;;;;;;;;;15.17;100.00;99355.22;4989292;28;20341;-42
2023/06/02 06:09:28;;;;;;;;;;;;;;;15.81;100.00;99333.25;4988460;28;20279;-42
2023/06/02 06:11:53;;;;;;;;;;;;;;;15.39;100.00;99334.31;4986936;28;19921;-42
2023/06/02 06:14:19;;;;;;;;;;;;;;;14.62;100.00;99377.47;4986229;28;19971;-42
2023/06/02 06:16:44;;;;;;;;;;;;;;;15.42;100.00;99371.38;4981336;28;19945;-42
2023/06/02 06:19:10;;;;;;;;;;;;;;;16.00;100.00;99343.59;4978722;28;19917;-42
2023/06/02 06:21:36;;;;;;;;;;;;;;;16.61;100.00;99327.50;4981164;28;19922;-42
2023/06/02 06:24:03;;;;;;;;;;;;;;;15.66;100.00;99352.94;4981454;28;19918;-42
2023/06/02 06:26:28;;;;;;;;;;;;;;;15.49;100.00;99361.53;4979803;28;20473;-42
2023/06/02 06:28:53;;;;;;;;;;;;;;;15.14;100.00;99365.72;4986079;28;19940;-42
2023/06/02 06:31:18;;;;;;;;;;;;;;;16.24;100.00;99334.59;4985516;28;19925;-42
2023/06/02 06:33:43;;;;;;;;;;;;;;;15.47;100.00;99359.00;4985532;28;19971;-42
2023/06/02 06:36:10;;;;;;;;;;;;;;;16.25;100.00;99344.03;4995395;28;19922;-42
2023/06/02 06:38:35;;;;;;;;;;;;;;;17.04;100.00;99321.84;4994018;28;20375;-42
2023/06/02 06:41:00;;;;;;;;;;;;;;;17.89;100.00;99278.97;4993634;28;19929;-42
2023/06/02 06:43:25;;;;;;;;;;;;;;;17.01;100.00;99317.63;4994956;28;19932;-42
2023/06/02 06:45:51;;;;;;;;;;;;;;;16.28;100.00;99338.72;4995784;28;19979;-42
2023/06/02 06:48:16;;;;;;;;;;;;;;;16.03;100.00;99353.81;4993066;28;19918;-42
2023/06/02 06:50:41;;;;;;;;;;;;;;;16.05;100.00;99352.81;4997736;28;19924;-42
2023/06/02 06:53:07;;;;;;;;;;;;;;;16.59;100.00;99334.53;4996404;28;19917;-42
2023/06/02 06:55:33;;;;;;;;;;;;;;;15.68;100.00;99364.09;4989295;28;19960;-42
2023/06/02 06:57:58;;;;;;;;;;;;;;;16.88;100.00;99345.25;4993029;28;20004;-42
2023/06/02 07:00:23;;;;;;;;;;;;;;;17.78;100.00;99305.59;4988138;28;19922;-42
2023/06/02 07:02:49;;;;;;;;;;;;;;;16.84;100.00;99321.13;4995765;28;19928;-42
2023/06/02 07:05:14;;;;;;;;;;;;;;;15.62;100.00;99351.41;4996201;28;19926;-42
2023/06/02 07:07:40;;;;;;;;;;;;;;;15.34;100.00;99373.44;4984338;28;19994;-42
2023/06/02 07:10:05;;;;;;;;;;;;;;;17.07;100.00;99330.31;5000033;28;19917;-42
2023/06/02 07:12:30;;;;;;;;;;;;;;;17.84;100.00;99291.44;4985881;28;19925;-42
2023/06/02 07:14:56;;;;;;;;;;;;;;;17.31;100.00;99320.38;4998706;28;19924;-42
2023/06/02 07:17:21;;;;;;;;;;;;;;;18.19;100.00;99294.59;4990210;28;19930;-42
2023/06/02 07:19:46;;;;;;;;;;;;;;;16.93;98.27;99306.81;5000509;28;19928;-42
2023/06/02 07:22:11;;;;;;;;;;;;;;;17.33;99.01;99304.63;4988908;28;20744;-42
2023/06/02 07:24:37;;;;;;;;;;;;;;;17.04;100.00;99330.50;4990060;28;19918;-42
2023/06/02 07:27:03;;;;;;;;;;;;;;;17.32;99.29;99303.81;4996138;28;19971;-42
2023/06/02 07:29:28;;;;;;;;;;;;;;;17.36;100.00;99314.91;4986631;28;19918;-42
2023/06/02 07:31:53;;;;;;;;;;;;;;;16.80;100.00;99327.41;4989159;28;19975;-42
2023/06/02 07:34:19;;;;;;;;;;;;;;;17.08;100.00;99346.78;4997526;28;20101;-42
2023/06/02 07:36:46;;;;;;;;;;;;;;;16.20;100.00;99379.00;4990177;28;20366;-42
2023/06/02 07:39:11;;;;;;;;;;;;;;;17.49;100.00;99331.53;5000102;28;19917;-42
2023/06/02 07:41:37;;;;;;;;;;;;;;;18.83;98.22;99283.88;4989200;28;19922;-42
2023/06/02 07:44:02;;;;;;;;;;;;;;;17.46;100.00;99334.28;4991898;28;19918;-42
2023/06/02 07:46:27;;;;;;;;;;;;;;;17.59;97.62;99299.78;4996670;28;19917;-42
2023/06/02 07:48:52;;;;;;;;;;;;;;;16.83;100.00;99335.09;4992322;28;19918;-42
2023/06/02 07:51:17;;;;;;;;;;;;;;;16.72;99.58;99312.19;4985844;28;19920;-42
2023/06/02 07:53:43;;;;;;;;;;;;;;;17.08;100.00;99326.81;4990603;28;19918;-42
2023/06/02 07:56:08;;;;;;;;;;;;;;;18.17;97.15;99279.03;4987625;28;19921;-41
2023/06/02 07:58:33;;;;;;;;;;;;;;;18.27;92.89;99258.50;4995261;28;19913;-41
2023/06/02 08:00:58;;;;;;;;;;;;;;;18.25;97.30;99299.47;4991892;28;19941;-41
2023/06/02 08:03:23;;;;;;;;;;;;;;;18.69;95.20;99288.13;4984706;28;19917;-41
2023/06/02 08:05:49;;;;;;;;;;;;;;;17.41;95.12;99309.44;4988022;28;19929;-41
2023/06/02 08:08:14;;;;;;;;;;;;;;;18.01;99.31;99324.34;4993244;28;20674;-41
2023/06/02 08:10:39;;;;;;;;;;;;;;;19.32;96.78;99280.81;4994419;28;21318;-41
2023/06/02 08:13:05;;;;;;;;;;;;;;;19.22;94.42;99281.38;4997592;28;19917;-41
2023/06/02 08:15:30;;;;;;;;;;;;;;;21.22;86.85;99214.78;4981973;28;19918;-41
2023/06/02 08:17:55;;;;;;;;;;;;;;;21.38;83.41;99217.13;4987755;28;19964;-41
2023/06/02 08:20:20;;;;;;;;;;;;;;;20.04;87.61;99276.97;4988602;28;19922;-41
2023/06/02 08:22:46;;;;;;;;;;;;;;;18.52;89.18;99294.38;4992378;28;19925;-41
2023/06/02 08:25:12;;;;;;;;;;;;;;;20.42;89.13;99263.09;4991659;28;19917;-41
2023/06/02 08:27:38;;;;;;;;;;;;;;;20.21;87.88;99275.03;4982209;28;19940;-41
2023/06/02 08:30:04;;;;;;;;;;;;;;;19.59;85.40;99265.97;4981349;28;19949;-41
2023/06/02 08:32:29;;;;;;;;;;;;;;;21.05;82.12;99229.06;5000767;28;21324;-40
2023/06/02 08:34:56;;;;;;;;;;;;;;;21.86;83.17;99230.19;4989770;28;19925;-41
2023/06/02 08:37:21;;;;;;;;;;;;;;;21.75;73.43;99193.44;4994170;28;19925;-41
2023/06/02 08:39:47;;;;;;;;;;;;;;;22.60;77.16;99245.56;4996206;28;19957;-41
2023/06/02 08:42:13;;;;;;;;;;;;;;;20.87;81.18;99265.28;4986038;28;19918;-41
2023/06/02 08:44:38;;;;;;;;;;;;;;;19.75;81.79;99275.44;4991703;28;20183;-41
2023/06/02 08:47:04;;;;;;;;;;;;;;;19.37;85.57;99295.25;4996530;28;20474;-41
2023/06/02 08:49:29;;;;;;;;;;;;;;;19.76;85.62;99290.19;4987618;28;20040;-41
2023/06/02 08:52:03;;;;;;;;;;;;;;;19.91;89.17;99302.28;4992831;28;20016;-41
2023/06/02 08:54:29;;;;;;;;;;;;;;;19.28;91.83;99326.31;4981878;28;19957;-41
2023/06/02 08:56:57;;;;;;;;;;;;;;;20.65;85.53;99258.06;4992040;28;19956;-41
2023/06/02 08:59:23;;;;;;;;;;;;;;;20.17;94.01;99323.22;4995130;28;19958;-41
2023/06/02 09:01:48;;;;;;;;;;;;;;;18.41;92.58;99327.25;4984210;28;20016;-41
2023/06/02 09:04:14;;;;;;;;;;;;;;;20.34;86.16;99252.28;4985790;28;19914;-41
2023/06/02 09:06:40;;;;;;;;;;;;;;;19.99;86.49;99276.44;4991978;28;20032;-41
2023/06/02 09:09:05;;;;;;;;;;;;;;;20.77;86.25;99262.44;4987747;28;20001;-41
2023/06/02 09:11:31;;;;;;;;;;;;;;;19.76;86.58;99270.13;5000013;28;19960;-41
2023/06/02 09:13:57;;;;;;;;;;;;;;;20.50;86.17;99265.16;4992713;28;19925;-41
2023/06/02 09:16:23;;;;;;;;;;;;;;;20.10;85.41;99256.59;4984533;28;19921;-41
2023/06/02 09:18:55;;;;;;;;;;;;;;;20.19;85.11;99266.44;4993216;28;19987;-41
2023/06/02 09:21:26;;;;;;;;;;;;;;;20.83;87.62;99274.28;4986203;28;19922;-41
2023/06/02 09:23:52;;;;;;;;;;;;;;;22.72;80.11;99207.88;4988059;28;19921;-41
2023/06/02 09:26:18;;;;;;;;;;;;;;;21.56;80.42;99228.91;4990146;28;20350;-41
2023/06/02 09:28:43;;;;;;;;;;;;;;;21.81;82.59;99240.19;4995645;28;20008;-42
2023/06/02 09:31:08;;;;;;;;;;;;;;;21.56;86.61;99289.16;4988786;28;19922;-41
2023/06/02 09:33:34;;;;;;;;;;;;;;;23.50;81.02;99216.50;4989537;28;19929;-41
2023/06/02 09:35:59;;;;;;;;;;;;;;;20.58;86.89;99289.06;4985202;28;19936;-41
2023/06/02 09:38:25;;;;;;;;;;;;;;;20.03;89.22;99309.28;4984379;28;19917;-41
2023/06/02 09:40:51;;;;;;;;;;;;;;;22.64;81.82;99220.75;4992610;28;19922;-41
2023/06/02 09:43:17;;;;;;;;;;;;;;;21.44;82.80;99248.97;4993989;28;19924;-42
2023/06/02 09:45:48;;;;;;;;;;;;;;;22.01;85.44;99268.38;4984934;28;19917;-41
2023/06/02 09:48:22;;;;;;;;;;;;;;;21.34;79.00;99237.44;4985121;28;19918;-42
2023/06/02 09:50:48;;;;;;;;;;;;;;;21.44;83.51;99262.09;4993226;28;20488;-41
2023/06/02 09:53:14;;;;;;;;;;;;;;;21.57;83.45;99255.94;4989546;28;20012;-42
2023/06/02 09:55:39;;;;;;;;;;;;;;;21.47;83.00;99267.09;4984237;28;20004;-42
2023/06/02 09:58:05;;;;;;;;;;;;;;;21.47;84.51;99281.97;4994963;28;19914;-42
2023/06/02 10:00:30;;;;;;;;;;;;;;;22.82;87.00;99277.06;4985630;28;20287;-41
2023/06/02 10:02:55;;;;;;;;;;;;;;;22.84;86.28;99275.16;4985198;28;19989;-42
2023/06/02 10:05:22;;;;;;;;;;;;;;;21.59;83.38;99265.34;4983761;28;20279;-42
2023/06/02 10:08:06;;;;;;;;;;;;;;;23.56;83.65;99248.38;4982231;28;19929;-42
2023/06/02 10:10:53;;;;;;;;;;;;;;;23.53;83.12;99245.16;4986918;28;19925;-42
2023/06/02 10:13:37;;;;;;;;;;;;;;;21.82;85.11;99271.50;4996624;28;19921;-42
2023/06/02 10:16:14;;;;;;;;;;;;;;;22.43;83.65;99255.59;4986227;28;20233;-42
2023/06/02 10:18:58;;;;;;;;;;;;;;;21.10;85.88;99295.06;4976663;28;20024;-42
2023/06/02 10:21:29;;;;;;;;;;;;;;;22.04;87.72;99293.53;4983298;28;20472;-42
2023/06/02 10:24:04;;;;;;;;;;;;;;;19.98;87.33;99314.00;4992296;28;19918;-42
2023/06/02 10:26:36;;;;;;;;;;;;;;;22.47;83.59;99235.19;4978689;28;19922;-42
2023/06/02 10:29:01;;;;;;;;;;;;;;;22.79;84.07;99244.97;4991344;28;19961;-42
2023/06/02 10:31:33;;;;;;;;;;;;;;;23.27;80.88;99229.72;4992246;28;19981;-42
2023/06/02 10:34:00;;;;;;;;;;;;;;;22.89;76.79;99225.72;4987408;28;19929;-42
2023/06/02 10:36:26;;;;;;;;;;;;;;;22.20;84.38;99285.34;4983792;28;19959;-42
2023/06/02 10:38:51;;;;;;;;;;;;;;;22.73;86.81;99283.03;4973409;28;20001;-42
2023/06/02 10:41:21;;;;;;;;;;;;;;;22.87;81.99;99243.38;4980098;28;20096;-42
2023/06/02 10:44:05;;;;;;;;;;;;;;;23.87;79.42;99218.75;4977792;28;19925;-42
2023/06/02 10:46:31;;;;;;;;;;;;;;;23.47;81.29;99241.25;4976845;28;19975;-42
2023/06/02 10:48:56;;;;;;;;;;;;;;;22.55;84.02;99283.50;4981718;28;19975;-42
2023/06/02 10:51:21;;;;;;;;;;;;;;;23.32;82.98;99253.84;4980548;28;20327;-42
2023/06/02 10:53:58;;;;;;;;;;;;;;;24.73;80.92;99229.88;4978500;28;20386;-42
2023/06/02 10:56:35;;;;;;;;;;;;;;;22.25;83.36;99278.81;4978515;28;21042;-42
2023/06/02 10:59:01;;;;;;;;;;;;;;;24.31;83.63;99250.97;4988993;28;20453;-42
2023/06/02 11:01:51;;;;;;;;;;;;;;;24.21;84.53;99243.88;4980342;28;19921;-42
2023/06/02 11:04:31;;;;;;;;;;;;;;;24.07;82.42;99238.13;4988160;28;19922;-42
2023/06/02 11:07:18;;;;;;;;;;;;;;;24.08;84.29;99264.28;4988541;28;19967;-42
2023/06/02 11:09:44;;;;;;;;;;;;;;;25.84;79.06;99211.13;4997011;28;20081;-42
2023/06/02 11:12:09;;;;;;;;;;;;;;;25.28;74.32;99198.66;4990022;28;20306;-42
2023/06/02 11:14:53;;;;;;;;;;;;;;;24.46;76.72;99239.16;4986870;28;19921;-42
2023/06/02 11:17:29;;;;;;;;;;;;;;;26.02;71.20;99176.09;4979403;28;20378;-43
2023/06/02 11:19:54;;;;;;;;;;;;;;;24.77;76.48;99244.41;4986435;28;19968;-42
2023/06/02 11:22:19;;;;;;;;;;;;;;;24.86;79.01;99240.16;4997989;28;20530;-42
2023/06/02 11:24:45;;;;;;;;;;;;;;;24.81;79.06;99232.66;4988570;28;19941;-42
2023/06/02 11:27:10;;;;;;;;;;;;;;;24.26;77.76;99226.88;4982650;28;19925;-40
2023/06/02 11:29:35;;;;;;;;;;;;;;;23.27;84.19;99255.19;4991941;28;20024;-42
2023/06/02 11:32:01;;;;;;;;;;;;;;;24.58;80.83;99243.38;4989652;28;19921;-42
2023/06/02 11:34:26;;;;;;;;;;;;;;;25.26;79.93;99242.75;4986009;28;19925;-42
2023/06/02 11:36:53;;;;;;;;;;;;;;;24.73;77.23;99227.22;4991565;28;19918;-42
2023/06/02 11:39:18;;;;;;;;;;;;;;;26.18;75.29;99197.41;4992532;28;19918;-43
2023/06/02 11:41:57;;;;;;;;;;;;;;;25.64;75.26;99217.38;4991114;28;19921;-43
2023/06/02 11:44:22;;;;;;;;;;;;;;;24.69;79.32;99244.25;4986674;28;19921;-43
2023/06/02 11:46:47;;;;;;;;;;;;;;;23.82;84.75;99277.00;4983174;28;19925;-42
2023/06/02 11:49:13;;;;;;;;;;;;;;;22.66;85.05;99277.41;4991803;28;19917;-42
2023/06/02 11:51:38;;;;;;;;;;;;;;;24.34;81.50;99240.22;4984605;28;20031;-42
2023/06/02 11:54:04;;;;;;;;;;;;;;;25.80;75.64;99193.06;4983889;28;19921;-43
2023/06/02 11:56:30;;;;;;;;;;;;;;;25.00;74.67;99214.25;4995208;28;19921;-42
2023/06/02 11:58:56;;;;;;;;;;;;;;;26.38;77.67;99214.03;4990519;28;19941;-42
2023/06/02 12:01:21;;;;;;;;;;;;;;;26.86;75.68;99201.59;4984995;28;19926;-43
2023/06/02 12:04:05;;;;;;;;;;;;;;;25.98;73.17;99190.53;4997059;28;19925;-42
2023/06/02 12:06:31;;;;;;;;;;;;;;;26.33;73.06;99183.78;4984653;28;20399;-43
2023/06/02 12:08:57;;;;;;;;;;;;;;;23.76;79.88;99261.72;4989355;28;19917;-42
2023/06/02 12:11:23;;;;;;;;;;;;;;;23.40;83.00;99271.63;4993229;28;19921;-43
2023/06/02 12:13:58;;;;;;;;;;;;;;;23.42;83.22;99263.59;4988812;28;19928;-42
2023/06/02 12:16:26;;;;;;;;;;;;;;;26.51;78.81;99219.00;4987200;28;19917;-42
2023/06/02 12:18:53;;;;;;;;;;;;;;;25.31;78.58;99239.72;4985426;28;19917;-43
2023/06/02 12:21:22;;;;;;;;;;;;;;;26.94;76.07;99195.56;4987671;28;19922;-42
2023/06/02 12:23:47;;;;;;;;;;;;;;;25.58;79.36;99237.22;4990342;28;19917;-43
2023/06/02 12:26:13;;;;;;;;;;;;;;;24.76;78.08;99240.94;4990859;28;20380;-42
2023/06/02 12:28:38;;;;;;;;;;;;;;;25.07;81.82;99253.25;4992743;28;20539;-42
2023/06/02 12:31:03;;;;;;;;;;;;;;;25.32;80.14;99242.22;4983591;28;19918;-42
2023/06/02 12:33:29;;;;;;;;;;;;;;;24.92;82.44;99258.88;4978511;28;19932;-43
2023/06/02 12:35:55;;;;;;;;;;;;;;;25.29;77.05;99231.94;4999837;28;19917;-42
2023/06/02 12:38:20;;;;;;;;;;;;;;;24.29;76.97;99235.34;4983810;28;19980;-42